sensor_id;sensor_type;location;lat;lon;timestamp;temperature;humidity
10883;DHT22;5494;51.796;10.952;2023-07-20T00:00:03;16.40;99.90
10883;DHT22;5494;51.796;10.952;2023-07-20T00:02:38;16.30;99.90
10883;DHT22;5494;51.796;10.952;2023-07-20T00:05:07;16.30;99.90
10883;DHT22;5494;51.796;10.952;2023-07-20T00:07:35;16.20;99.90
10883;DHT22;5494;51.796;10.952;2023-07-20T00:10:03;16.20;99.90
10883;DHT22;5494;51.796;10.952;2023-07-20T00:12:32;16.20;99.90
10883;DHT22;5494;51.796;10.952;2023-07-20T00:15:03;16.10;99.90
10883;DHT22;5494;51.796;10.952;2023-07-20T00:17:31;16.10;99.90
10883;DHT22;5494;51.796;10.952;2023-07-20T00:20:00;16.10;99.90
10883;DHT22;5494;51.796;10.952;2023-07-20T00:22:28;16.10;99.90
10883;DHT22;5494;51.796;10.952;2023-07-20T00:24:57;16.10;99.90
10883;DHT22;5494;51.796;10.952;2023-07-20T00:27:25;16.10;99.90
10883;DHT22;5494;51.796;10.952;2023-07-20T00:29:53;16.20;99.90
10883;DHT22;5494;51.796;10.952;2023-07-20T00:32:22;16.20;99.90
10883;DHT22;5494;51.796;10.952;2023-07-20T00:34:50;16.20;99.90
10883;DHT22;5494;51.796;10.952;2023-07-20T00:37:19;16.20;99.90
10883;DHT22;5494;51.796;10.952;2023-07-20T00:39:47;16.10;99.90
10883;DHT22;5494;51.796;10.952;2023-07-20T00:42:15;16.20;99.90
10883;DHT22;5494;51.796;10.952;2023-07-20T00:44:44;16.20;99.90
10883;DHT22;5494;51.796;10.952;2023-07-20T00:47:12;16.20;99.90
10883;DHT22;5494;51.796;10.952;2023-07-20T00:49:42;16.30;99.90
10883;DHT22;5494;51.796;10.952;2023-07-20T00:52:13;16.20;99.90
10883;DHT22;5494;51.796;10.952;2023-07-20T00:54:43;16.30;99.90
10883;DHT22;5494;51.796;10.952;2023-07-20T00:57:13;16.40;99.90
10883;DHT22;5494;51.796;10.952;2023-07-20T00:59:42;16.40;99.90
10883;DHT22;5494;51.796;10.952;2023-07-20T01:02:10;16.40;99.90
10883;DHT22;5494;51.796;10.952;2023-07-20T01:04:41;16.30;99.90
10883;DHT22;5494;51.796;10.952;2023-07-20T01:07:12;16.30;99.90
10883;DHT22;5494;51.796;10.952;2023-07-20T01:09:50;16.30;99.90
10883;DHT22;5494;51.796;10.952;2023-07-20T01:12:27;16.20;99.90
10883;DHT22;5494;51.796;10.952;2023-07-20T01:15:00;16.10;99.90
10883;DHT22;5494;51.796;10.952;2023-07-20T01:17:29;16.10;99.90
10883;DHT22;5494;51.796;10.952;2023-07-20T01:19:59;16.10;99.90
10883;DHT22;5494;51.796;10.952;2023-07-20T01:23:00;16.00;99.90
10883;DHT22;5494;51.796;10.952;2023-07-20T01:26:02;16.00;99.90
10883;DHT22;5494;51.796;10.952;2023-07-20T01:32:08;15.90;99.90
10883;DHT22;5494;51.796;10.952;2023-07-20T01:34:38;15.80;99.90
10883;DHT22;5494;51.796;10.952;2023-07-20T01:37:09;15.90;99.90
10883;DHT22;5494;51.796;10.952;2023-07-20T01:39:39;15.80;99.90
10883;DHT22;5494;51.796;10.952;2023-07-20T01:42:08;15.90;99.90
10883;DHT22;5494;51.796;10.952;2023-07-20T01:44:37;15.90;99.90
10883;DHT22;5494;51.796;10.952;2023-07-20T01:47:06;15.90;99.90
10883;DHT22;5494;51.796;10.952;2023-07-20T01:49:34;15.90;99.90
10883;DHT22;5494;51.796;10.952;2023-07-20T01:52:03;16.00;99.90
10883;DHT22;5494;51.796;10.952;2023-07-20T01:54:32;16.10;99.90
10883;DHT22;5494;51.796;10.952;2023-07-20T01:57:01;16.10;99.90
10883;DHT22;5494;51.796;10.952;2023-07-20T01:59:29;16.10;99.90
10883;DHT22;5494;51.796;10.952;2023-07-20T02:01:57;16.10;99.90
10883;DHT22;5494;51.796;10.952;2023-07-20T02:04:30;16.20;99.90
10883;DHT22;5494;51.796;10.952;2023-07-20T02:06:58;16.30;99.90
10883;DHT22;5494;51.796;10.952;2023-07-20T02:09:27;16.30;99.90
10883;DHT22;5494;51.796;10.952;2023-07-20T02:11:55;16.40;99.90
10883;DHT22;5494;51.796;10.952;2023-07-20T02:14:23;16.40;99.90
10883;DHT22;5494;51.796;10.952;2023-07-20T02:16:54;16.40;99.90
10883;DHT22;5494;51.796;10.952;2023-07-20T02:19:31;16.40;99.90
10883;DHT22;5494;51.796;10.952;2023-07-20T02:21:59;16.30;99.90
10883;DHT22;5494;51.796;10.952;2023-07-20T02:24:29;16.20;99.90
10883;DHT22;5494;51.796;10.952;2023-07-20T02:26:57;16.20;99.90
10883;DHT22;5494;51.796;10.952;2023-07-20T02:29:26;16.10;99.90
10883;DHT22;5494;51.796;10.952;2023-07-20T02:31:55;16.00;99.90
10883;DHT22;5494;51.796;10.952;2023-07-20T02:34:23;15.90;99.90
10883;DHT22;5494;51.796;10.952;2023-07-20T02:36:55;15.90;99.90
10883;DHT22;5494;51.796;10.952;2023-07-20T02:39:25;16.00;99.90
10883;DHT22;5494;51.796;10.952;2023-07-20T02:41:54;16.00;99.90
10883;DHT22;5494;51.796;10.952;2023-07-20T02:44:22;16.00;99.90
10883;DHT22;5494;51.796;10.952;2023-07-20T02:46:51;16.00;99.90
10883;DHT22;5494;51.796;10.952;2023-07-20T02:49:19;16.00;99.90
10883;DHT22;5494;51.796;10.952;2023-07-20T02:51:47;16.00;99.90
10883;DHT22;5494;51.796;10.952;2023-07-20T02:54:16;15.90;99.90
10883;DHT22;5494;51.796;10.952;2023-07-20T02:56:44;15.90;99.90
10883;DHT22;5494;51.796;10.952;2023-07-20T02:59:13;15.90;99.90
10883;DHT22;5494;51.796;10.952;2023-07-20T03:01:41;15.90;99.90
10883;DHT22;5494;51.796;10.952;2023-07-20T03:04:09;15.90;99.90
10883;DHT22;5494;51.796;10.952;2023-07-20T03:06:38;16.00;99.90
10883;DHT22;5494;51.796;10.952;2023-07-20T03:09:06;16.00;99.90
10883;DHT22;5494;51.796;10.952;2023-07-20T03:11:37;16.00;99.90
10883;DHT22;5494;51.796;10.952;2023-07-20T03:14:05;16.00;99.90
10883;DHT22;5494;51.796;10.952;2023-07-20T03:16:33;16.00;99.90
10883;DHT22;5494;51.796;10.952;2023-07-20T03:19:01;16.00;99.90
10883;DHT22;5494;51.796;10.952;2023-07-20T03:21:30;16.00;99.90
10883;DHT22;5494;51.796;10.952;2023-07-20T03:23:58;16.00;99.90
10883;DHT22;5494;51.796;10.952;2023-07-20T03:26:27;16.10;99.90
10883;DHT22;5494;51.796;10.952;2023-07-20T03:28:57;16.10;99.90
10883;DHT22;5494;51.796;10.952;2023-07-20T03:31:25;16.10;99.90
10883;DHT22;5494;51.796;10.952;2023-07-20T03:33:53;16.10;99.90
10883;DHT22;5494;51.796;10.952;2023-07-20T03:36:21;16.00;99.90
10883;DHT22;5494;51.796;10.952;2023-07-20T03:38:50;16.10;99.90
10883;DHT22;5494;51.796;10.952;2023-07-20T03:41:18;16.10;99.90
10883;DHT22;5494;51.796;10.952;2023-07-20T03:43:48;16.10;99.90
10883;DHT22;5494;51.796;10.952;2023-07-20T03:46:18;16.00;99.90
10883;DHT22;5494;51.796;10.952;2023-07-20T03:48:46;16.10;99.90
10883;DHT22;5494;51.796;10.952;2023-07-20T03:51:14;16.00;99.90
10883;DHT22;5494;51.796;10.952;2023-07-20T03:53:43;16.00;99.90
10883;DHT22;5494;51.796;10.952;2023-07-20T03:56:11;15.90;99.90
10883;DHT22;5494;51.796;10.952;2023-07-20T03:58:40;15.90;99.90
10883;DHT22;5494;51.796;10.952;2023-07-20T04:01:08;16.00;99.90
10883;DHT22;5494;51.796;10.952;2023-07-20T04:03:38;16.10;99.90
10883;DHT22;5494;51.796;10.952;2023-07-20T04:06:06;16.10;99.90
10883;DHT22;5494;51.796;10.952;2023-07-20T04:08:35;16.10;99.90
10883;DHT22;5494;51.796;10.952;2023-07-20T04:11:03;16.20;99.90
10883;DHT22;5494;51.796;10.952;2023-07-20T04:13:32;16.40;99.90
10883;DHT22;5494;51.796;10.952;2023-07-20T04:16:01;16.60;99.90
10883;DHT22;5494;51.796;10.952;2023-07-20T04:18:29;16.60;99.90
10883;DHT22;5494;51.796;10.952;2023-07-20T04:20:59;16.80;99.90
10883;DHT22;5494;51.796;10.952;2023-07-20T04:23:27;17.00;99.90
10883;DHT22;5494;51.796;10.952;2023-07-20T04:25:55;17.10;99.90
10883;DHT22;5494;51.796;10.952;2023-07-20T04:28:23;17.10;99.90
10883;DHT22;5494;51.796;10.952;2023-07-20T04:30:52;17.10;99.90
10883;DHT22;5494;51.796;10.952;2023-07-20T04:33:21;17.10;99.90
10883;DHT22;5494;51.796;10.952;2023-07-20T04:35:51;17.10;99.90
10883;DHT22;5494;51.796;10.952;2023-07-20T04:38:28;17.20;99.90
10883;DHT22;5494;51.796;10.952;2023-07-20T04:41:11;17.10;99.90
10883;DHT22;5494;51.796;10.952;2023-07-20T04:43:43;17.10;99.90
10883;DHT22;5494;51.796;10.952;2023-07-20T04:46:17;17.10;99.90
10883;DHT22;5494;51.796;10.952;2023-07-20T04:48:46;17.20;99.90
10883;DHT22;5494;51.796;10.952;2023-07-20T04:51:15;17.40;99.90
10883;DHT22;5494;51.796;10.952;2023-07-20T04:53:50;17.60;99.90
10883;DHT22;5494;51.796;10.952;2023-07-20T04:56:18;17.60;99.90
10883;DHT22;5494;51.796;10.952;2023-07-20T04:58:48;17.80;99.90
10883;DHT22;5494;51.796;10.952;2023-07-20T05:01:16;17.90;99.90
10883;DHT22;5494;51.796;10.952;2023-07-20T05:03:45;17.80;99.90
10883;DHT22;5494;51.796;10.952;2023-07-20T05:06:13;17.90;99.90
10883;DHT22;5494;51.796;10.952;2023-07-20T05:08:41;17.90;99.90
10883;DHT22;5494;51.796;10.952;2023-07-20T05:11:11;18.00;99.90
10883;DHT22;5494;51.796;10.952;2023-07-20T05:13:40;18.00;99.90
10883;DHT22;5494;51.796;10.952;2023-07-20T05:16:08;18.10;99.90
10883;DHT22;5494;51.796;10.952;2023-07-20T05:18:36;18.10;99.90
10883;DHT22;5494;51.796;10.952;2023-07-20T05:21:05;18.20;99.90
10883;DHT22;5494;51.796;10.952;2023-07-20T05:23:35;18.20;99.90
10883;DHT22;5494;51.796;10.952;2023-07-20T05:26:03;18.20;99.90
10883;DHT22;5494;51.796;10.952;2023-07-20T05:28:32;18.10;99.90
10883;DHT22;5494;51.796;10.952;2023-07-20T05:31:02;18.00;99.90
10883;DHT22;5494;51.796;10.952;2023-07-20T05:33:30;18.00;99.90
10883;DHT22;5494;51.796;10.952;2023-07-20T05:35:58;18.00;99.90
10883;DHT22;5494;51.796;10.952;2023-07-20T05:38:27;17.90;99.90
10883;DHT22;5494;51.796;10.952;2023-07-20T05:40:59;17.90;99.90
10883;DHT22;5494;51.796;10.952;2023-07-20T05:43:28;17.80;99.90
10883;DHT22;5494;51.796;10.952;2023-07-20T05:45:58;17.90;99.90
10883;DHT22;5494;51.796;10.952;2023-07-20T05:48:27;17.40;99.90
10883;DHT22;5494;51.796;10.952;2023-07-20T05:50:55;17.80;99.90
10883;DHT22;5494;51.796;10.952;2023-07-20T05:53:23;17.80;99.90
10883;DHT22;5494;51.796;10.952;2023-07-20T05:55:52;17.90;99.90
10883;DHT22;5494;51.796;10.952;2023-07-20T05:58:21;18.10;99.90
10883;DHT22;5494;51.796;10.952;2023-07-20T06:00:50;18.40;99.90
10883;DHT22;5494;51.796;10.952;2023-07-20T06:03:22;18.80;99.90
10883;DHT22;5494;51.796;10.952;2023-07-20T06:05:51;19.60;99.90
10883;DHT22;5494;51.796;10.952;2023-07-20T06:08:19;20.80;99.90
10883;DHT22;5494;51.796;10.952;2023-07-20T06:10:50;22.60;99.90
10883;DHT22;5494;51.796;10.952;2023-07-20T06:13:18;24.50;99.90
10883;DHT22;5494;51.796;10.952;2023-07-20T06:15:47;26.10;99.90
10883;DHT22;5494;51.796;10.952;2023-07-20T06:18:15;27.60;99.90
10883;DHT22;5494;51.796;10.952;2023-07-20T06:20:49;28.70;96.00
10883;DHT22;5494;51.796;10.952;2023-07-20T06:23:18;28.90;95.40
10883;DHT22;5494;51.796;10.952;2023-07-20T06:25:47;27.80;95.90
10883;DHT22;5494;51.796;10.952;2023-07-20T06:28:15;26.40;99.90
10883;DHT22;5494;51.796;10.952;2023-07-20T06:30:44;25.60;99.90
10883;DHT22;5494;51.796;10.952;2023-07-20T06:33:12;24.50;99.90
10883;DHT22;5494;51.796;10.952;2023-07-20T06:35:41;23.70;99.90
10883;DHT22;5494;51.796;10.952;2023-07-20T06:38:11;22.80;99.90
10883;DHT22;5494;51.796;10.952;2023-07-20T06:40:42;22.10;99.90
10883;DHT22;5494;51.796;10.952;2023-07-20T06:43:10;21.50;99.90
10883;DHT22;5494;51.796;10.952;2023-07-20T06:45:42;20.50;99.90
10883;DHT22;5494;51.796;10.952;2023-07-20T06:48:10;19.80;99.90
10883;DHT22;5494;51.796;10.952;2023-07-20T06:50:38;19.40;99.90
10883;DHT22;5494;51.796;10.952;2023-07-20T06:53:06;19.10;99.90
10883;DHT22;5494;51.796;10.952;2023-07-20T06:55:36;19.00;99.90
10883;DHT22;5494;51.796;10.952;2023-07-20T06:58:11;19.00;99.90
10883;DHT22;5494;51.796;10.952;2023-07-20T07:00:40;18.60;99.90
10883;DHT22;5494;51.796;10.952;2023-07-20T07:03:09;18.20;99.90
10883;DHT22;5494;51.796;10.952;2023-07-20T07:05:37;18.20;99.90
10883;DHT22;5494;51.796;10.952;2023-07-20T07:08:05;18.30;99.90
10883;DHT22;5494;51.796;10.952;2023-07-20T07:10:36;17.90;99.90
10883;DHT22;5494;51.796;10.952;2023-07-20T07:13:04;17.60;99.90
10883;DHT22;5494;51.796;10.952;2023-07-20T07:15:33;17.30;99.90
10883;DHT22;5494;51.796;10.952;2023-07-20T07:18:04;17.00;99.90
10883;DHT22;5494;51.796;10.952;2023-07-20T07:20:33;16.80;99.90
10883;DHT22;5494;51.796;10.952;2023-07-20T07:23:01;16.50;99.90
10883;DHT22;5494;51.796;10.952;2023-07-20T07:25:29;16.30;99.90
10883;DHT22;5494;51.796;10.952;2023-07-20T07:28:00;16.10;99.90
10883;DHT22;5494;51.796;10.952;2023-07-20T07:30:28;16.10;99.90
10883;DHT22;5494;51.796;10.952;2023-07-20T07:33:00;16.00;99.90
10883;DHT22;5494;51.796;10.952;2023-07-20T07:35:28;16.00;99.90
10883;DHT22;5494;51.796;10.952;2023-07-20T07:37:56;16.00;99.90
10883;DHT22;5494;51.796;10.952;2023-07-20T07:40:29;15.90;99.90
10883;DHT22;5494;51.796;10.952;2023-07-20T07:42:59;15.90;99.90
10883;DHT22;5494;51.796;10.952;2023-07-20T07:45:27;15.90;99.90
10883;DHT22;5494;51.796;10.952;2023-07-20T07:47:55;15.90;99.90
10883;DHT22;5494;51.796;10.952;2023-07-20T07:50:23;16.00;99.90
10883;DHT22;5494;51.796;10.952;2023-07-20T07:52:52;16.10;99.90
10883;DHT22;5494;51.796;10.952;2023-07-20T07:55:20;16.20;99.90
10883;DHT22;5494;51.796;10.952;2023-07-20T07:57:48;16.30;99.90
10883;DHT22;5494;51.796;10.952;2023-07-20T08:00:18;16.40;99.90
10883;DHT22;5494;51.796;10.952;2023-07-20T08:02:47;16.60;99.90
10883;DHT22;5494;51.796;10.952;2023-07-20T08:05:15;16.80;99.90
10883;DHT22;5494;51.796;10.952;2023-07-20T08:07:44;16.90;99.90
10883;DHT22;5494;51.796;10.952;2023-07-20T08:10:12;16.90;99.90
10883;DHT22;5494;51.796;10.952;2023-07-20T08:12:40;17.00;99.90
10883;DHT22;5494;51.796;10.952;2023-07-20T08:15:11;17.20;99.90
10883;DHT22;5494;51.796;10.952;2023-07-20T08:17:42;17.30;99.90
10883;DHT22;5494;51.796;10.952;2023-07-20T08:20:13;17.50;99.90
10883;DHT22;5494;51.796;10.952;2023-07-20T08:22:42;17.50;99.90
10883;DHT22;5494;51.796;10.952;2023-07-20T08:25:14;17.70;99.90
10883;DHT22;5494;51.796;10.952;2023-07-20T08:27:42;17.90;99.90
10883;DHT22;5494;51.796;10.952;2023-07-20T08:30:13;18.00;99.90
10883;DHT22;5494;51.796;10.952;2023-07-20T08:32:43;18.20;99.90
10883;DHT22;5494;51.796;10.952;2023-07-20T08:35:11;18.50;99.90
10883;DHT22;5494;51.796;10.952;2023-07-20T08:37:41;18.90;99.90
10883;DHT22;5494;51.796;10.952;2023-07-20T08:40:11;19.20;99.90
10883;DHT22;5494;51.796;10.952;2023-07-20T08:42:42;19.50;99.90
10883;DHT22;5494;51.796;10.952;2023-07-20T08:45:13;19.50;99.90
10883;DHT22;5494;51.796;10.952;2023-07-20T08:47:45;19.60;99.90
10883;DHT22;5494;51.796;10.952;2023-07-20T08:50:16;19.60;99.90
10883;DHT22;5494;51.796;10.952;2023-07-20T08:52:44;19.40;99.90
10883;DHT22;5494;51.796;10.952;2023-07-20T08:55:13;19.20;99.90
10883;DHT22;5494;51.796;10.952;2023-07-20T08:57:44;18.90;99.90
10883;DHT22;5494;51.796;10.952;2023-07-20T09:00:15;18.80;99.90
10883;DHT22;5494;51.796;10.952;2023-07-20T09:02:50;18.90;99.90
10883;DHT22;5494;51.796;10.952;2023-07-20T09:05:19;18.90;99.90
10883;DHT22;5494;51.796;10.952;2023-07-20T09:07:48;18.90;99.90
10883;DHT22;5494;51.796;10.952;2023-07-20T09:10:16;18.90;99.90
10883;DHT22;5494;51.796;10.952;2023-07-20T09:12:45;18.90;99.90
10883;DHT22;5494;51.796;10.952;2023-07-20T09:15:14;19.00;99.90
10883;DHT22;5494;51.796;10.952;2023-07-20T09:17:47;19.20;99.90
10883;DHT22;5494;51.796;10.952;2023-07-20T09:20:17;19.60;99.90
10883;DHT22;5494;51.796;10.952;2023-07-20T09:22:50;20.10;99.90
10883;DHT22;5494;51.796;10.952;2023-07-20T09:25:19;20.40;99.90
10883;DHT22;5494;51.796;10.952;2023-07-20T09:27:49;20.30;99.90
10883;DHT22;5494;51.796;10.952;2023-07-20T09:30:18;20.00;99.90
10883;DHT22;5494;51.796;10.952;2023-07-20T09:32:49;19.80;99.90
10883;DHT22;5494;51.796;10.952;2023-07-20T09:35:21;19.40;99.90
10883;DHT22;5494;51.796;10.952;2023-07-20T09:37:55;19.10;99.90
10883;DHT22;5494;51.796;10.952;2023-07-20T09:40:29;18.80;99.90
10883;DHT22;5494;51.796;10.952;2023-07-20T09:43:00;18.70;99.90
10883;DHT22;5494;51.796;10.952;2023-07-20T09:45:33;18.70;99.90
10883;DHT22;5494;51.796;10.952;2023-07-20T09:48:08;18.80;99.90
10883;DHT22;5494;51.796;10.952;2023-07-20T09:50:40;18.90;99.90
10883;DHT22;5494;51.796;10.952;2023-07-20T09:53:12;19.20;99.90
10883;DHT22;5494;51.796;10.952;2023-07-20T09:55:41;19.40;99.90
10883;DHT22;5494;51.796;10.952;2023-07-20T09:58:10;19.60;99.90
10883;DHT22;5494;51.796;10.952;2023-07-20T10:00:39;19.90;99.90
10883;DHT22;5494;51.796;10.952;2023-07-20T10:03:18;20.30;99.90
10883;DHT22;5494;51.796;10.952;2023-07-20T10:05:52;20.70;99.90
10883;DHT22;5494;51.796;10.952;2023-07-20T10:08:25;20.80;99.90
10883;DHT22;5494;51.796;10.952;2023-07-20T10:10:58;21.00;99.90
10883;DHT22;5494;51.796;10.952;2023-07-20T10:13:29;21.10;99.90
10883;DHT22;5494;51.796;10.952;2023-07-20T10:16:02;21.20;99.90
10883;DHT22;5494;51.796;10.952;2023-07-20T10:18:42;21.10;99.90
10883;DHT22;5494;51.796;10.952;2023-07-20T10:21:20;21.20;99.90
10883;DHT22;5494;51.796;10.952;2023-07-20T10:23:55;21.20;99.90
10883;DHT22;5494;51.796;10.952;2023-07-20T10:26:25;21.00;99.90
10883;DHT22;5494;51.796;10.952;2023-07-20T10:28:54;20.80;99.90
10883;DHT22;5494;51.796;10.952;2023-07-20T10:31:23;20.60;99.90
10883;DHT22;5494;51.796;10.952;2023-07-20T10:33:55;20.40;99.90
10883;DHT22;5494;51.796;10.952;2023-07-20T10:36:25;20.40;99.90
10883;DHT22;5494;51.796;10.952;2023-07-20T10:38:58;20.90;99.90
10883;DHT22;5494;51.796;10.952;2023-07-20T10:41:29;21.20;99.90
10883;DHT22;5494;51.796;10.952;2023-07-20T10:43:58;21.40;99.90
10883;DHT22;5494;51.796;10.952;2023-07-20T10:46:42;21.70;99.90
10883;DHT22;5494;51.796;10.952;2023-07-20T10:49:14;21.70;99.90
10883;DHT22;5494;51.796;10.952;2023-07-20T10:51:44;21.70;99.90
10883;DHT22;5494;51.796;10.952;2023-07-20T10:54:35;21.60;99.90
10883;DHT22;5494;51.796;10.952;2023-07-20T10:57:24;21.70;99.90
10883;DHT22;5494;51.796;10.952;2023-07-20T11:00:11;21.80;99.90
10883;DHT22;5494;51.796;10.952;2023-07-20T11:02:43;21.90;99.90
10883;DHT22;5494;51.796;10.952;2023-07-20T11:05:38;21.80;99.90
10883;DHT22;5494;51.796;10.952;2023-07-20T11:08:10;21.80;99.90
10883;DHT22;5494;51.796;10.952;2023-07-20T11:10:39;22.00;99.90
10883;DHT22;5494;51.796;10.952;2023-07-20T11:13:18;22.10;99.90
10883;DHT22;5494;51.796;10.952;2023-07-20T11:16:01;22.10;99.90
10883;DHT22;5494;51.796;10.952;2023-07-20T11:18:33;22.10;99.90
10883;DHT22;5494;51.796;10.952;2023-07-20T11:21:11;22.10;99.90
10883;DHT22;5494;51.796;10.952;2023-07-20T11:23:39;21.90;99.90
10883;DHT22;5494;51.796;10.952;2023-07-20T11:26:08;21.70;99.90
10883;DHT22;5494;51.796;10.952;2023-07-20T11:28:36;21.70;99.90
10883;DHT22;5494;51.796;10.952;2023-07-20T11:31:04;21.80;99.90
10883;DHT22;5494;51.796;10.952;2023-07-20T11:33:32;21.90;99.90
10883;DHT22;5494;51.796;10.952;2023-07-20T11:36:01;21.80;99.90
10883;DHT22;5494;51.796;10.952;2023-07-20T11:38:51;21.50;99.90
10883;DHT22;5494;51.796;10.952;2023-07-20T11:41:19;21.20;99.90
10883;DHT22;5494;51.796;10.952;2023-07-20T11:43:48;21.40;99.90
10883;DHT22;5494;51.796;10.952;2023-07-20T11:46:16;21.40;99.90
10883;DHT22;5494;51.796;10.952;2023-07-20T11:48:44;21.40;99.90
10883;DHT22;5494;51.796;10.952;2023-07-20T11:51:15;21.50;99.90
10883;DHT22;5494;51.796;10.952;2023-07-20T11:53:44;21.40;99.90
10883;DHT22;5494;51.796;10.952;2023-07-20T11:56:16;21.30;99.90
10883;DHT22;5494;51.796;10.952;2023-07-20T11:58:44;21.20;99.90
10883;DHT22;5494;51.796;10.952;2023-07-20T12:01:13;21.00;99.90
10883;DHT22;5494;51.796;10.952;2023-07-20T12:03:42;20.90;99.90
10883;DHT22;5494;51.796;10.952;2023-07-20T12:06:11;20.80;99.90
10883;DHT22;5494;51.796;10.952;2023-07-20T12:08:42;20.80;99.90
10883;DHT22;5494;51.796;10.952;2023-07-20T12:11:11;20.90;99.90
10883;DHT22;5494;51.796;10.952;2023-07-20T12:13:42;20.80;99.90
10883;DHT22;5494;51.796;10.952;2023-07-20T12:16:13;20.80;99.90
10883;DHT22;5494;51.796;10.952;2023-07-20T12:18:44;20.80;99.90
10883;DHT22;5494;51.796;10.952;2023-07-20T12:21:12;20.90;99.90
10883;DHT22;5494;51.796;10.952;2023-07-20T12:23:41;20.90;99.90
10883;DHT22;5494;51.796;10.952;2023-07-20T12:26:10;20.90;99.90
10883;DHT22;5494;51.796;10.952;2023-07-20T12:28:39;20.90;99.90
10883;DHT22;5494;51.796;10.952;2023-07-20T12:31:10;21.00;99.90
10883;DHT22;5494;51.796;10.952;2023-07-20T12:33:40;21.10;99.90
10883;DHT22;5494;51.796;10.952;2023-07-20T12:36:09;21.10;99.90
10883;DHT22;5494;51.796;10.952;2023-07-20T12:38:38;21.30;99.90
10883;DHT22;5494;51.796;10.952;2023-07-20T12:41:06;21.50;99.80
10883;DHT22;5494;51.796;10.952;2023-07-20T12:43:34;21.70;97.10
10883;DHT22;5494;51.796;10.952;2023-07-20T12:46:02;21.80;96.70
10883;DHT22;5494;51.796;10.952;2023-07-20T12:48:32;21.90;95.00
10883;DHT22;5494;51.796;10.952;2023-07-20T12:51:00;22.00;95.50
10883;DHT22;5494;51.796;10.952;2023-07-20T12:53:28;22.00;95.80
10883;DHT22;5494;51.796;10.952;2023-07-20T12:55:56;21.90;97.10
10883;DHT22;5494;51.796;10.952;2023-07-20T12:58:24;21.90;97.10
10883;DHT22;5494;51.796;10.952;2023-07-20T13:00:53;21.90;96.90
10883;DHT22;5494;51.796;10.952;2023-07-20T13:03:21;21.90;95.90
10883;DHT22;5494;51.796;10.952;2023-07-20T13:05:53;21.80;95.20
10883;DHT22;5494;51.796;10.952;2023-07-20T13:08:24;21.90;95.20
10883;DHT22;5494;51.796;10.952;2023-07-20T13:10:53;21.80;94.40
10883;DHT22;5494;51.796;10.952;2023-07-20T13:13:21;21.80;95.80
10883;DHT22;5494;51.796;10.952;2023-07-20T13:15:49;21.90;95.30
10883;DHT22;5494;51.796;10.952;2023-07-20T13:18:18;21.90;95.80
10883;DHT22;5494;51.796;10.952;2023-07-20T13:20:46;22.00;96.20
10883;DHT22;5494;51.796;10.952;2023-07-20T13:23:15;22.00;93.40
10883;DHT22;5494;51.796;10.952;2023-07-20T13:25:43;22.00;93.20
10883;DHT22;5494;51.796;10.952;2023-07-20T13:28:11;21.90;93.00
10883;DHT22;5494;51.796;10.952;2023-07-20T13:30:39;21.90;93.30
10883;DHT22;5494;51.796;10.952;2023-07-20T13:33:07;22.00;93.20
10883;DHT22;5494;51.796;10.952;2023-07-20T13:35:43;22.00;92.30
10883;DHT22;5494;51.796;10.952;2023-07-20T13:38:15;22.00;93.20
10883;DHT22;5494;51.796;10.952;2023-07-20T13:40:44;22.00;91.90
10883;DHT22;5494;51.796;10.952;2023-07-20T13:43:12;22.00;91.60
10883;DHT22;5494;51.796;10.952;2023-07-20T13:45:40;22.00;89.10
10883;DHT22;5494;51.796;10.952;2023-07-20T13:48:08;21.90;89.30
10883;DHT22;5494;51.796;10.952;2023-07-20T13:50:36;21.90;89.90
10883;DHT22;5494;51.796;10.952;2023-07-20T13:53:07;21.90;91.00
10883;DHT22;5494;51.796;10.952;2023-07-20T13:55:40;21.90;92.90
10883;DHT22;5494;51.796;10.952;2023-07-20T13:58:11;22.00;92.60
10883;DHT22;5494;51.796;10.952;2023-07-20T14:00:39;22.10;93.10
10883;DHT22;5494;51.796;10.952;2023-07-20T14:03:08;22.20;92.40
10883;DHT22;5494;51.796;10.952;2023-07-20T14:05:39;22.20;92.00
10883;DHT22;5494;51.796;10.952;2023-07-20T14:08:10;22.20;93.30
10883;DHT22;5494;51.796;10.952;2023-07-20T14:10:39;22.20;92.20
10883;DHT22;5494;51.796;10.952;2023-07-20T14:13:11;22.10;91.90
10883;DHT22;5494;51.796;10.952;2023-07-20T14:15:39;22.10;91.00
10883;DHT22;5494;51.796;10.952;2023-07-20T14:18:07;22.00;91.90
10883;DHT22;5494;51.796;10.952;2023-07-20T14:20:35;22.10;91.20
10883;DHT22;5494;51.796;10.952;2023-07-20T14:23:05;22.10;91.40
10883;DHT22;5494;51.796;10.952;2023-07-20T14:25:33;22.10;89.70
10883;DHT22;5494;51.796;10.952;2023-07-20T14:28:05;22.00;92.70
10883;DHT22;5494;51.796;10.952;2023-07-20T14:30:34;21.90;93.00
10883;DHT22;5494;51.796;10.952;2023-07-20T14:33:02;21.80;93.40
10883;DHT22;5494;51.796;10.952;2023-07-20T14:35:30;21.90;93.90
10883;DHT22;5494;51.796;10.952;2023-07-20T14:37:59;21.90;93.40
10883;DHT22;5494;51.796;10.952;2023-07-20T14:40:27;21.90;92.60
10883;DHT22;5494;51.796;10.952;2023-07-20T14:42:56;21.80;94.70
10883;DHT22;5494;51.796;10.952;2023-07-20T14:45:27;21.90;92.70
10883;DHT22;5494;51.796;10.952;2023-07-20T14:47:55;22.00;92.80
10883;DHT22;5494;51.796;10.952;2023-07-20T14:50:23;21.90;92.80
10883;DHT22;5494;51.796;10.952;2023-07-20T14:52:51;21.70;94.10
10883;DHT22;5494;51.796;10.952;2023-07-20T14:55:19;21.60;94.90
10883;DHT22;5494;51.796;10.952;2023-07-20T14:57:49;21.60;94.50
10883;DHT22;5494;51.796;10.952;2023-07-20T15:00:18;21.40;96.20
10883;DHT22;5494;51.796;10.952;2023-07-20T15:02:48;21.40;96.50
10883;DHT22;5494;51.796;10.952;2023-07-20T15:05:20;21.40;96.60
10883;DHT22;5494;51.796;10.952;2023-07-20T15:07:49;21.30;96.40
10883;DHT22;5494;51.796;10.952;2023-07-20T15:10:17;21.40;96.20
10883;DHT22;5494;51.796;10.952;2023-07-20T15:12:45;21.50;94.60
10883;DHT22;5494;51.796;10.952;2023-07-20T15:15:14;21.60;95.00
10883;DHT22;5494;51.796;10.952;2023-07-20T15:17:44;21.70;93.90
10883;DHT22;5494;51.796;10.952;2023-07-20T15:20:14;21.70;94.10
10883;DHT22;5494;51.796;10.952;2023-07-20T15:22:43;21.70;94.30
10883;DHT22;5494;51.796;10.952;2023-07-20T15:25:15;21.80;94.30
10883;DHT22;5494;51.796;10.952;2023-07-20T15:27:43;21.80;94.10
10883;DHT22;5494;51.796;10.952;2023-07-20T15:30:17;21.80;95.30
10883;DHT22;5494;51.796;10.952;2023-07-20T15:32:48;21.80;92.30
10883;DHT22;5494;51.796;10.952;2023-07-20T15:35:20;21.80;92.20
10883;DHT22;5494;51.796;10.952;2023-07-20T15:37:48;21.70;92.20
10883;DHT22;5494;51.796;10.952;2023-07-20T15:40:17;21.60;92.80
10883;DHT22;5494;51.796;10.952;2023-07-20T15:42:45;21.60;92.80
10883;DHT22;5494;51.796;10.952;2023-07-20T15:45:19;21.60;93.00
10883;DHT22;5494;51.796;10.952;2023-07-20T15:47:48;21.60;92.70
10883;DHT22;5494;51.796;10.952;2023-07-20T15:50:16;21.70;92.40